Tahuya, Washington
Current Conditions -  °F | °C
As of 1:53 AM on Tuesday 21 Oct 2014 (Local Time) from KSHN Reporting Station
Overcast Overcast  
Wind Chill: 52°   Ceiling: 4400
Heat Index: 52°   Visibility: 10mi
Dew Point: 51°   Wind: 0mph
Humidity: 97%   Direction: NA
Pressure: 29.79"   Gusts: NA
Location:  47.37°N, 123.06°W
Report Text: KSHN 210853Z AUTO 00000KT 10SM FEW029 BKN044 OVC070 11/11 A2979 RMK AO2 SLP090 60000 T01110106 53007 TSNO
Loading
Personal Weather Stations






























Interactive Weather Map
Tropical Storm Tracking
New forecast layout! Learn more

10-Day Weather Forecast

Advertisements
Track Severe Weather on mobile